createdAt,value
2018-06-08T00:01:29.687Z,87.93
2018-06-08T00:04:33.970Z,88.07
2018-06-08T00:07:39.498Z,88.05
2018-06-08T00:10:43.777Z,88.32
2018-06-08T00:13:48.185Z,87.73
2018-06-08T00:16:52.523Z,88.14
2018-06-08T00:19:56.804Z,88.29
2018-06-08T00:23:01.293Z,88.32
2018-06-08T00:26:05.665Z,88.46
2018-06-08T00:29:09.972Z,88.20
2018-06-08T00:32:14.377Z,87.51
2018-06-08T00:35:18.678Z,87.36
2018-06-08T00:38:23.051Z,87.11
2018-06-08T00:41:27.415Z,87.16
2018-06-08T00:44:32.730Z,87.66
2018-06-08T00:47:37.052Z,87.63
2018-06-08T00:50:41.534Z,88.11
2018-06-08T00:53:45.821Z,88.28
2018-06-08T00:57:04.635Z,88.01
2018-06-08T01:00:08.935Z,88.59
2018-06-08T01:03:13.253Z,88.93
2018-06-08T01:06:17.552Z,88.97
2018-06-08T01:09:21.879Z,89.21
2018-06-08T01:12:26.534Z,89.63
2018-06-08T01:15:30.908Z,88.69
2018-06-08T01:18:35.200Z,89.03
2018-06-08T01:21:39.750Z,88.87
2018-06-08T01:24:44.253Z,89.53
2018-06-08T01:27:48.540Z,89.62
2018-06-08T01:30:52.819Z,89.48
2018-06-08T01:33:58.241Z,89.01
2018-06-08T01:37:02.533Z,89.17
2018-06-08T01:40:06.916Z,89.16
2018-06-08T01:43:11.348Z,89.17
2018-06-08T01:46:15.644Z,89.17
2018-06-08T01:49:19.930Z,88.83
2018-06-08T01:52:25.510Z,89.12
2018-06-08T01:55:29.822Z,88.45
2018-06-08T01:58:34.126Z,88.59
2018-06-08T02:01:38.401Z,88.24
2018-06-08T02:04:42.655Z,88.75
2018-06-08T02:07:46.939Z,88.26
2018-06-08T02:10:51.225Z,88.38
2018-06-08T02:13:55.493Z,89.02
2018-06-08T02:16:59.825Z,88.77
2018-06-08T02:20:04.125Z,88.32
2018-06-08T02:23:08.388Z,88.12
2018-06-08T02:26:12.658Z,88.57
2018-06-08T02:29:16.923Z,89.35
2018-06-08T02:32:21.208Z,89.17
2018-06-08T02:35:25.460Z,89.19
2018-06-08T02:38:29.729Z,89.81
2018-06-08T02:41:34.009Z,89.81
2018-06-08T02:44:38.274Z,90.40
2018-06-08T02:47:42.531Z,90.37
2018-06-08T02:50:46.792Z,90.51
2018-06-08T02:53:51.094Z,90.28
2018-06-08T02:56:55.350Z,90.23
2018-06-08T02:59:59.628Z,90.33
2018-06-08T03:03:04.029Z,90.11
2018-06-08T03:06:08.353Z,90.04
2018-06-08T03:09:12.781Z,90.21
2018-06-08T03:12:17.041Z,90.00
2018-06-08T03:15:21.317Z,89.57
2018-06-08T03:18:25.584Z,89.67
2018-06-08T03:21:30.149Z,89.51
2018-06-08T03:24:34.442Z,89.42
2018-06-08T03:27:38.861Z,89.72
2018-06-08T03:30:43.129Z,89.15
2018-06-08T03:33:47.636Z,90.18
2018-06-08T03:36:51.937Z,89.67
2018-06-08T03:39:56.279Z,89.73
2018-06-08T03:43:00.304Z,89.56
2018-06-08T03:46:04.583Z,90.73
2018-06-08T03:49:08.837Z,90.87
2018-06-08T03:52:13.135Z,90.22
2018-06-08T03:55:17.424Z,90.74
2018-06-08T03:58:21.677Z,91.51
2018-06-08T04:01:26.168Z,91.05
2018-06-08T04:04:30.423Z,91.28
2018-06-08T04:07:34.743Z,90.93
2018-06-08T04:10:39.025Z,89.39
2018-06-08T04:13:43.269Z,90.06
2018-06-08T04:16:47.771Z,89.05
2018-06-08T04:19:52.171Z,88.59
2018-06-08T04:22:56.438Z,89.53
2018-06-08T04:26:03.577Z,89.33
2018-06-08T04:29:10.180Z,88.65
2018-06-08T04:32:14.473Z,88.22
2018-06-08T04:35:18.880Z,87.62
2018-06-08T04:38:23.289Z,86.98
2018-06-08T04:41:28.031Z,87.75
2018-06-08T04:44:32.613Z,86.32
2018-06-08T04:47:37.113Z,85.47
2018-06-08T04:50:41.896Z,85.71
2018-06-08T04:53:46.223Z,85.61
2018-06-08T04:56:53.180Z,85.82
2018-06-08T04:59:57.424Z,84.19
2018-06-08T05:03:01.681Z,84.52
2018-06-08T05:06:06.847Z,83.77
2018-06-08T05:09:11.389Z,82.50
2018-06-08T05:12:15.744Z,80.29
2018-06-08T05:15:20.225Z,79.80
2018-06-08T05:18:24.988Z,80.46
2018-06-08T05:21:29.418Z,83.68
2018-06-08T05:24:35.450Z,83.16
2018-06-08T05:27:40.894Z,82.34
2018-06-08T05:30:45.742Z,82.83
2018-06-08T05:33:50.608Z,83.61
2018-06-08T05:36:55.853Z,84.56
2018-06-08T05:40:00.257Z,83.97
2018-06-08T05:43:04.679Z,84.33
2018-06-08T05:46:08.957Z,84.69
2018-06-08T05:49:13.220Z,83.29
2018-06-08T05:52:18.026Z,83.12
2018-06-08T05:55:22.353Z,82.47
2018-06-08T05:58:26.615Z,82.08
2018-06-08T06:01:31.638Z,80.55
2018-06-08T06:04:36.393Z,80.44
2018-06-08T06:07:40.658Z,78.24
2018-06-08T06:10:44.976Z,77.74
2018-06-08T06:13:49.216Z,77.26
2018-06-08T06:16:53.468Z,80.43
2018-06-08T06:19:57.698Z,84.19
2018-06-08T06:23:01.966Z,85.76
2018-06-08T06:26:06.434Z,86.83
2018-06-08T06:29:10.760Z,82.62
2018-06-08T06:32:15.227Z,80.05
2018-06-08T06:35:19.547Z,79.51
2018-06-08T06:38:23.809Z,77.63
2018-06-08T06:41:28.053Z,77.09
2018-06-08T06:44:32.382Z,76.84
2018-06-08T06:47:36.503Z,76.22
2018-06-08T06:50:40.760Z,68.32
2018-06-08T06:53:45.216Z,68.90
2018-06-08T06:56:49.553Z,62.82
2018-06-08T06:59:53.816Z,64.41
2018-06-08T07:02:58.073Z,65.71
2018-06-08T07:06:02.351Z,65.36
2018-06-08T07:09:09.568Z,68.93
2018-06-08T07:12:14.309Z,73.82
2018-06-08T07:15:18.593Z,68.45
2018-06-08T07:18:23.430Z,66.40
2018-06-08T07:21:27.692Z,68.11
2018-06-08T07:24:32.517Z,65.32
2018-06-08T07:27:36.765Z,66.31
2018-06-08T07:30:41.040Z,62.56
2018-06-08T07:33:45.392Z,62.20
2018-06-08T07:36:49.643Z,60.54
2018-06-08T07:39:53.976Z,59.65
2018-06-08T07:42:58.267Z,61.51
2018-06-08T07:46:02.628Z,63.58
2018-06-08T07:49:06.957Z,67.44
2018-06-08T07:52:11.306Z,64.96
2018-06-08T07:55:15.694Z,68.07
2018-06-08T07:58:19.964Z,67.05
2018-06-08T08:01:24.228Z,65.93
2018-06-08T08:04:28.524Z,64.84
2018-06-08T08:07:32.917Z,63.10
2018-06-08T08:10:37.182Z,64.99
2018-06-08T08:13:41.895Z,64.21
2018-06-08T08:16:46.172Z,65.71
2018-06-08T08:19:50.442Z,67.29
2018-06-08T08:22:54.864Z,66.62
2018-06-08T08:25:59.153Z,64.79
2018-06-08T08:29:03.450Z,63.92
2018-06-08T08:32:08.102Z,66.05
2018-06-08T08:35:12.599Z,67.28
2018-06-08T08:38:16.872Z,66.71
2018-06-08T08:41:21.304Z,64.35
2018-06-08T08:44:25.574Z,67.35
2018-06-08T08:47:29.829Z,62.31
2018-06-08T08:50:34.238Z,64.47
2018-06-08T08:53:38.534Z,59.93
2018-06-08T08:56:42.886Z,60.63
2018-06-08T08:59:47.492Z,61.91
2018-06-08T09:02:51.981Z,63.70
2018-06-08T09:05:56.422Z,64.21
2018-06-08T09:09:00.776Z,63.49
2018-06-08T09:12:05.297Z,62.50
2018-06-08T09:15:09.773Z,61.85
2018-06-08T09:18:13.968Z,60.96
2018-06-08T09:21:18.311Z,61.55
2018-06-08T09:24:22.634Z,60.54
2018-06-08T09:27:27.002Z,63.31
2018-06-08T09:30:31.208Z,63.44
2018-06-08T09:33:35.736Z,62.84
2018-06-08T09:36:40.014Z,60.19
2018-06-08T09:39:44.624Z,58.91
2018-06-08T09:42:49.289Z,57.10
2018-06-08T09:45:53.578Z,57.38
2018-06-08T09:48:58.720Z,61.01
2018-06-08T09:52:02.980Z,58.37
2018-06-08T09:55:07.721Z,57.74
2018-06-08T09:58:12.013Z,58.06
2018-06-08T10:01:16.293Z,57.53
2018-06-08T10:04:20.605Z,60.12
2018-06-08T10:07:24.885Z,58.19
2018-06-08T10:10:29.596Z,58.52
2018-06-08T10:13:33.979Z,54.76
2018-06-08T10:16:38.419Z,51.59
2018-06-08T10:19:42.933Z,56.17
2018-06-08T10:22:47.165Z,55.44
2018-06-08T10:25:51.515Z,54.73
2018-06-08T10:28:55.840Z,54.92
2018-06-08T10:31:59.894Z,54.04
2018-06-08T10:35:04.274Z,54.42
2018-06-08T10:38:08.529Z,55.67
2018-06-08T10:41:12.810Z,54.00
2018-06-08T10:44:17.054Z,54.58
2018-06-08T10:47:21.479Z,57.07
2018-06-08T10:50:26.596Z,52.46
2018-06-08T10:53:32.150Z,54.07
2018-06-08T10:56:36.604Z,53.37
2018-06-08T10:59:41.950Z,53.29
2018-06-08T11:02:46.371Z,53.46
2018-06-08T11:05:50.655Z,54.41
2018-06-08T11:08:54.982Z,55.13
2018-06-08T11:11:59.494Z,51.96
2018-06-08T11:15:03.865Z,54.17
2018-06-08T11:18:08.535Z,50.50
2018-06-08T11:21:12.872Z,51.64
2018-06-08T11:24:17.128Z,50.54
2018-06-08T11:27:21.637Z,50.68
2018-06-08T11:30:25.943Z,49.68
2018-06-08T11:33:30.412Z,51.10
2018-06-08T11:36:34.978Z,49.39
2018-06-08T11:39:39.216Z,49.91
2018-06-08T11:42:43.552Z,48.23
2018-06-08T11:45:48.228Z,49.05
2018-06-08T11:48:52.733Z,46.71
2018-06-08T11:51:57.745Z,48.59
2018-06-08T11:55:02.035Z,47.88
2018-06-08T11:58:06.297Z,46.95
2018-06-08T12:01:10.888Z,47.34
2018-06-08T12:04:15.157Z,48.60
2018-06-08T12:07:19.421Z,49.78
2018-06-08T12:10:23.661Z,50.33
2018-06-08T12:13:28.077Z,48.65
2018-06-08T12:16:32.422Z,50.54
2018-06-08T12:19:36.668Z,49.47
2018-06-08T12:22:41.295Z,48.26
2018-06-08T12:25:45.644Z,47.01
2018-06-08T12:28:49.893Z,46.75
2018-06-08T12:31:54.156Z,46.35
2018-06-08T12:34:58.436Z,49.00
2018-06-08T12:38:02.725Z,49.62
2018-06-08T12:41:06.972Z,47.47
2018-06-08T12:44:11.387Z,47.68
2018-06-08T12:47:16.298Z,45.52
2018-06-08T12:50:20.600Z,44.86
2018-06-08T12:53:24.849Z,43.08
2018-06-08T12:56:29.158Z,41.25
2018-06-08T12:59:33.414Z,41.73
2018-06-08T13:02:37.667Z,43.34
2018-06-08T13:05:41.973Z,43.55
2018-06-08T13:08:46.349Z,43.76
2018-06-08T13:11:50.338Z,42.04
2018-06-08T13:14:54.685Z,44.11
2018-06-08T13:17:58.988Z,45.49
2018-06-08T13:21:03.257Z,44.75
2018-06-08T13:24:07.543Z,43.73
2018-06-08T13:27:11.781Z,43.71
2018-06-08T13:30:16.090Z,43.10
2018-06-08T13:33:20.510Z,43.05
2018-06-08T13:36:26.453Z,44.13
2018-06-08T13:39:30.837Z,44.06
2018-06-08T13:42:35.062Z,45.97
2018-06-08T13:45:39.447Z,44.09
2018-06-08T13:48:43.921Z,41.44
2018-06-08T13:51:48.340Z,43.42
2018-06-08T13:54:56.756Z,44.40
2018-06-08T13:58:01.517Z,47.22
2018-06-08T14:01:05.898Z,45.68
2018-06-08T14:04:11.192Z,45.54
2018-06-08T14:07:15.406Z,43.53
2018-06-08T14:10:19.801Z,44.54
2018-06-08T14:13:24.114Z,45.20
2018-06-08T14:16:28.610Z,45.40
2018-06-08T14:19:32.953Z,42.79
2018-06-08T14:22:37.324Z,42.76
2018-06-08T14:25:41.908Z,44.03
2018-06-08T14:28:47.036Z,44.92
2018-06-08T14:31:51.439Z,46.92
2018-06-08T14:34:56.657Z,46.86
2018-06-08T14:38:01.282Z,52.05
2018-06-08T14:41:05.793Z,59.09
2018-06-08T14:44:10.197Z,59.00
2018-06-08T14:47:14.572Z,56.63
2018-06-08T14:50:18.767Z,62.52
2018-06-08T14:53:23.416Z,59.64
2018-06-08T14:56:28.060Z,58.94
2018-06-08T14:59:32.564Z,64.06
2018-06-08T15:02:37.594Z,65.12
2018-06-08T15:05:48.672Z,63.52
2018-06-08T15:08:53.018Z,63.68
2018-06-08T15:11:57.351Z,64.43
2018-06-08T15:15:01.672Z,64.47
2018-06-08T15:18:05.920Z,61.68
2018-06-08T15:21:10.424Z,61.13
2018-06-08T15:24:14.672Z,61.64
2018-06-08T15:27:19.810Z,62.92
2018-06-08T15:30:24.265Z,65.63
2018-06-08T15:33:28.647Z,64.23
2018-06-08T15:36:32.963Z,64.84
2018-06-08T15:39:37.292Z,65.64
2018-06-08T15:42:41.641Z,67.77
2018-06-08T15:45:45.893Z,66.98
2018-06-08T15:48:50.237Z,71.72
2018-06-08T15:51:54.615Z,72.67
2018-06-08T15:55:12.987Z,69.87
2018-06-08T15:58:17.505Z,69.47
2018-06-08T16:01:22.118Z,70.32
2018-06-08T16:04:27.155Z,70.06
2018-06-08T16:07:32.514Z,71.22
2018-06-08T16:10:37.430Z,67.88
2018-06-08T16:13:42.249Z,67.40
2018-06-08T16:16:49.534Z,68.03
2018-06-08T16:19:54.938Z,67.73
2018-06-08T16:22:59.475Z,67.31
2018-06-08T16:26:03.968Z,68.29
2018-06-08T16:29:09.117Z,69.37
2018-06-08T16:32:13.800Z,69.05
2018-06-08T16:35:18.319Z,70.54
2018-06-08T16:38:23.059Z,70.95
2018-06-08T16:41:28.182Z,72.51
2018-06-08T16:44:32.566Z,70.95
2018-06-08T16:47:36.991Z,69.07
2018-06-08T16:50:41.403Z,68.67
2018-06-08T16:53:46.012Z,67.31
2018-06-08T16:56:50.484Z,66.96
2018-06-08T16:59:54.846Z,65.53
2018-06-08T17:02:59.537Z,64.70
2018-06-08T17:06:03.898Z,65.58
2018-06-08T17:09:08.451Z,67.49
2018-06-08T17:12:12.806Z,67.29
2018-06-08T17:15:17.662Z,69.47
2018-06-08T17:18:24.238Z,69.84
2018-06-08T17:21:28.653Z,68.36
2018-06-08T17:24:32.961Z,68.09
2018-06-08T17:27:37.395Z,67.47
2018-06-08T17:30:41.700Z,69.27
2018-06-08T17:33:46.220Z,70.12
2018-06-08T17:36:50.614Z,70.43
2018-06-08T17:39:54.941Z,69.14
2018-06-08T17:42:59.374Z,70.48
2018-06-08T17:46:03.765Z,69.89
2018-06-08T17:49:08.077Z,71.14
2018-06-08T17:52:13.029Z,70.92
2018-06-08T17:55:17.424Z,70.87
2018-06-08T17:58:21.782Z,70.99
2018-06-08T18:01:26.358Z,71.25
2018-06-08T18:04:30.704Z,71.77
2018-06-08T18:07:34.997Z,72.73
2018-06-08T18:10:39.736Z,72.99
2018-06-08T18:13:44.112Z,74.57
2018-06-08T18:16:48.513Z,74.34
2018-06-08T18:19:52.917Z,74.42
2018-06-08T18:22:57.404Z,74.00
2018-06-08T18:26:01.742Z,73.67
2018-06-08T18:29:06.156Z,73.90
2018-06-08T18:32:10.521Z,74.80
2018-06-08T18:35:14.926Z,75.22
2018-06-08T18:38:19.293Z,76.16
2018-06-08T18:41:23.591Z,75.22
2018-06-08T18:44:27.886Z,74.99
2018-06-08T18:47:33.039Z,75.61
2018-06-08T18:50:37.344Z,75.18
2018-06-08T18:53:41.689Z,76.76
2018-06-08T18:56:46.251Z,77.05
2018-06-08T18:59:55.464Z,76.86
2018-06-08T19:02:59.977Z,77.84
2018-06-08T19:06:04.336Z,78.23
2018-06-08T19:09:09.836Z,78.14
2018-06-08T19:12:14.474Z,79.64
2018-06-08T19:15:19.036Z,80.02
2018-06-08T19:18:23.445Z,79.90
2018-06-08T19:21:27.849Z,80.12
2018-06-08T19:24:32.444Z,80.42
2018-06-08T19:27:36.737Z,81.05
2018-06-08T19:30:41.181Z,81.20
2018-06-08T19:33:45.501Z,79.84
2018-06-08T19:36:49.916Z,79.03
2018-06-08T19:39:54.334Z,79.17
2018-06-08T19:42:58.975Z,78.65
2018-06-08T19:46:03.550Z,79.37
2018-06-08T19:49:08.034Z,80.03
2018-06-08T19:52:12.336Z,79.15
2018-06-08T19:55:16.701Z,79.53
2018-06-08T19:58:21.083Z,78.93
2018-06-08T20:01:25.844Z,78.45
2018-06-08T20:04:30.331Z,78.30
2018-06-08T20:07:34.655Z,78.58
2018-06-08T20:10:40.021Z,79.08
2018-06-08T20:13:44.289Z,78.50
2018-06-08T20:16:48.693Z,78.60
2018-06-08T20:19:52.968Z,79.62
2018-06-08T20:22:57.316Z,79.99
2018-06-08T20:26:01.725Z,80.43
2018-06-08T20:29:06.766Z,80.83
2018-06-08T20:32:11.107Z,81.13
2018-06-08T20:35:15.425Z,80.89
2018-06-08T20:38:19.795Z,81.27
2018-06-08T20:41:24.157Z,81.47
2018-06-08T20:44:28.508Z,81.70
2018-06-08T20:47:33.089Z,81.96
2018-06-08T20:50:37.637Z,82.34
2018-06-08T20:53:41.977Z,82.65
2018-06-08T20:56:51.150Z,82.16
2018-06-08T20:59:55.550Z,82.75
2018-06-08T21:02:59.956Z,82.08
2018-06-08T21:06:04.280Z,82.95
2018-06-08T21:09:08.644Z,83.39
2018-06-08T21:12:13.013Z,82.94
2018-06-08T21:15:17.021Z,83.17
2018-06-08T21:18:21.777Z,83.57
2018-06-08T21:21:26.269Z,82.96
2018-06-08T21:24:31.550Z,82.63
2018-06-08T21:27:35.864Z,82.83
2018-06-08T21:30:40.280Z,83.33
2018-06-08T21:33:44.937Z,83.46
2018-06-08T21:36:49.277Z,84.46
2018-06-08T21:39:53.950Z,84.03
2018-06-08T21:42:58.224Z,84.34
2018-06-08T21:46:02.646Z,84.33
2018-06-08T21:49:06.899Z,83.92
2018-06-08T21:52:11.153Z,83.30
2018-06-08T21:55:15.434Z,83.88
2018-06-08T21:58:19.804Z,84.21
2018-06-08T22:01:24.209Z,83.66
2018-06-08T22:04:28.496Z,83.32
2018-06-08T22:07:33.003Z,84.17
2018-06-08T22:10:37.323Z,84.19
2018-06-08T22:13:41.692Z,84.66
2018-06-08T22:16:46.030Z,84.99
2018-06-08T22:19:50.294Z,85.29
2018-06-08T22:22:54.660Z,85.03
2018-06-08T22:25:58.949Z,85.27
2018-06-08T22:29:03.798Z,85.06
2018-06-08T22:32:08.049Z,85.20
2018-06-08T22:35:13.331Z,85.34
2018-06-08T22:38:17.638Z,85.90
2018-06-08T22:41:21.928Z,85.59
2018-06-08T22:44:26.481Z,86.03
2018-06-08T22:47:30.786Z,85.82
2018-06-08T22:50:35.089Z,85.29
2018-06-08T22:53:39.454Z,85.30
2018-06-08T22:56:43.924Z,86.10
2018-06-08T22:59:48.274Z,86.10
2018-06-08T23:02:52.722Z,86.54
2018-06-08T23:05:56.985Z,86.25
2018-06-08T23:09:01.235Z,86.24
2018-06-08T23:12:05.573Z,86.82
2018-06-08T23:15:09.892Z,87.03
2018-06-08T23:18:14.224Z,86.89
2018-06-08T23:21:18.519Z,87.03
2018-06-08T23:24:22.925Z,86.22
2018-06-08T23:27:27.188Z,86.83
2018-06-08T23:30:31.481Z,86.32
2018-06-08T23:33:35.807Z,86.39
2018-06-08T23:36:40.184Z,86.44
2018-06-08T23:39:44.650Z,86.17
2018-06-08T23:42:49.163Z,85.33
2018-06-08T23:45:53.421Z,85.68
2018-06-08T23:48:57.695Z,85.85
2018-06-08T23:52:02.032Z,86.28
2018-06-08T23:55:06.408Z,86.14
2018-06-08T23:58:10.748Z,85.13
